Time;durP1;ratioP1;P1;durP2;ratioP2;P2;SDS_P1;SDS_P2;PMS_P1;PMS_P2;Temp;Humidity;BMP_temperature;BMP_pressure;BME280_temperature;BME280_humidity;BME280_pressure;Samples;Min_cycle;Max_cycle;Signal;HPM_P1;HPM_P2
2022/10/19 00:01:01;;;;;;;;;;;;;;;7.82;58.31;101476.90;1707390;83;25767;-58
2022/10/19 00:03:30;;;;;;;;;;;;;;;7.81;58.63;101478.31;1701515;82;25810;-57
2022/10/19 00:05:57;;;;;;;;;;;;;;;7.77;58.71;101465.61;1699435;84;28142;-57
2022/10/19 00:08:23;;;;;;;;;;;;;;;7.72;58.76;101464.19;1723249;83;25742;-59
2022/10/19 00:10:50;;;;;;;;;;;;;;;7.69;59.24;101469.27;1729010;82;25816;-58
2022/10/19 00:13:16;;;;;;;;;;;;;;;7.67;58.76;101465.36;1700383;82;25789;-59
2022/10/19 00:15:44;;;;;;;;;;;;;;;7.67;58.92;101464.02;1713498;83;25737;-59
2022/10/19 00:18:11;;;;;;;;;;;;;;;7.67;58.74;101464.02;1726717;82;28519;-58
2022/10/19 00:20:38;;;;;;;;;;;;;;;7.66;59.42;101456.95;1727912;83;25738;-59
2022/10/19 00:23:04;;;;;;;;;;;;;;;7.65;59.37;101460.58;1697966;82;25755;-59
2022/10/19 00:25:31;;;;;;;;;;;;;;;7.67;59.21;101457.80;1697031;83;25847;-58
2022/10/19 00:27:57;;;;;;;;;;;;;;;7.68;58.65;101456.84;1720276;83;25770;-60
2022/10/19 00:30:23;;;;;;;;;;;;;;;7.66;59.45;101458.28;1727361;82;28093;-59
2022/10/19 00:32:50;;;;;;;;;;;;;;;7.61;59.52;101455.06;1723008;82;25709;-60
2022/10/19 00:35:16;;;;;;;;;;;;;;;7.60;59.96;101455.14;1701472;83;25691;-59
2022/10/19 00:37:42;;;;;;;;;;;;;;;7.57;59.72;101452.19;1726550;82;26030;-59
2022/10/19 00:40:10;;;;;;;;;;;;;;;7.55;59.78;101441.20;1715885;83;25821;-59
2022/10/19 00:42:37;;;;;;;;;;;;;;;7.52;59.68;101449.81;1700361;83;27492;-59
2022/10/19 00:45:06;;;;;;;;;;;;;;;7.47;60.08;101453.74;1679677;83;25446;-59
2022/10/19 00:47:33;;;;;;;;;;;;;;;7.42;60.33;101446.50;1718190;83;25765;-59
2022/10/19 00:50:00;;;;;;;;;;;;;;;7.34;60.70;101451.00;1708641;82;26410;-59
2022/10/19 00:52:27;;;;;;;;;;;;;;;7.34;60.40;101441.62;1673660;83;25691;-58
2022/10/19 00:54:56;;;;;;;;;;;;;;;7.36;60.69;101439.72;1668304;84;27551;-59
2022/10/19 00:57:23;;;;;;;;;;;;;;;7.40;60.17;101439.05;1696027;83;25766;-58
2022/10/19 00:59:50;;;;;;;;;;;;;;;7.40;60.31;101437.20;1672898;83;25763;-58
2022/10/19 01:02:17;;;;;;;;;;;;;;;7.41;60.46;101434.07;1713134;83;25947;-58
2022/10/19 01:04:47;;;;;;;;;;;;;;;7.38;60.61;101432.45;1721340;83;25715;-58
2022/10/19 01:07:13;;;;;;;;;;;;;;;7.35;60.63;101428.63;1692613;84;27727;-58
2022/10/19 01:09:40;;;;;;;;;;;;;;;7.31;60.62;101428.44;1671665;85;25777;-58
2022/10/19 01:12:19;;;;;;;;;;;;;;;7.25;61.05;101431.05;1697025;83;25781;-58
2022/10/19 01:15:12;;;;;;;;;;;;;;;7.15;61.29;101425.41;1718512;82;26376;-59
2022/10/19 01:17:54;;;;;;;;;;;;;;;7.15;60.98;101424.56;1647986;84;25536;-60
2022/10/19 01:20:58;;;;;;;;;;;;;;;7.15;61.10;101413.37;1671555;85;27487;-58
2022/10/19 01:23:52;;;;;;;;;;;;;;;7.18;61.30;101425.23;1673041;83;26287;-57
2022/10/19 01:26:42;;;;;;;;;;;;;;;7.21;61.37;101416.13;1680343;83;25797;-58
2022/10/19 01:29:47;;;;;;;;;;;;;;;7.27;61.44;101412.21;1712676;83;25885;-59
2022/10/19 01:32:19;;;;;;;;;;;;;;;7.28;61.48;101412.59;1707835;83;26201;-59
2022/10/19 01:34:49;;;;;;;;;;;;;;;7.31;61.60;101409.23;1670999;83;27068;-59
2022/10/19 01:37:19;;;;;;;;;;;;;;;7.36;61.81;101400.41;1700892;83;25729;-59
2022/10/19 01:39:52;;;;;;;;;;;;;;;7.40;61.76;101399.73;1719760;82;25779;-60
2022/10/19 01:42:34;;;;;;;;;;;;;;;7.42;61.85;101402.33;1713077;83;25725;-60
2022/10/19 01:45:10;;;;;;;;;;;;;;;7.43;61.92;101400.88;1679717;83;25838;-60
2022/10/19 01:47:49;;;;;;;;;;;;;;;7.47;61.96;101393.50;1685830;83;27721;-60
2022/10/19 01:50:19;;;;;;;;;;;;;;;7.47;62.34;101397.06;1708561;83;25798;-58
2022/10/19 01:52:47;;;;;;;;;;;;;;;7.38;62.20;101394.11;1698208;84;25707;-59
2022/10/19 01:55:15;;;;;;;;;;;;;;;7.36;62.23;101395.55;1727130;82;25908;-58
2022/10/19 01:57:45;;;;;;;;;;;;;;;7.39;62.49;101387.80;1717635;82;25734;-60
2022/10/19 02:00:15;;;;;;;;;;;;;;;7.41;62.67;101396.10;1678333;84;27407;-59
2022/10/19 02:02:45;;;;;;;;;;;;;;;7.46;62.59;101393.13;1717499;82;25673;-58
2022/10/19 02:05:12;;;;;;;;;;;;;;;7.50;62.44;101393.31;1658413;83;25752;-58
2022/10/19 02:07:40;;;;;;;;;;;;;;;7.51;62.20;101389.69;1692243;82;26785;-58
2022/10/19 02:10:07;;;;;;;;;;;;;;;7.48;62.31;101389.87;1691835;82;26402;-58
2022/10/19 02:12:36;;;;;;;;;;;;;;;7.48;62.18;101388.07;1710039;82;27491;-59
2022/10/19 02:15:06;;;;;;;;;;;;;;;7.47;62.25;101383.67;1736076;82;25754;-59
2022/10/19 02:17:36;;;;;;;;;;;;;;;7.47;62.23;101393.05;1721090;82;25692;-59
2022/10/19 02:20:04;;;;;;;;;;;;;;;7.46;62.12;101389.98;1720255;82;25955;-59
2022/10/19 02:22:31;;;;;;;;;;;;;;;7.44;62.34;101391.90;1711508;82;25792;-59
2022/10/19 02:24:57;;;;;;;;;;;;;;;7.40;62.18;101388.18;1682025;82;27508;-58
2022/10/19 02:27:24;;;;;;;;;;;;;;;7.33;62.44;101391.27;1708293;82;25820;-59
2022/10/19 02:29:50;;;;;;;;;;;;;;;7.33;62.45;101393.06;1718892;83;25764;-59
2022/10/19 02:32:17;;;;;;;;;;;;;;;7.31;62.55;101386.95;1711538;83;26379;-58
2022/10/19 02:34:44;;;;;;;;;;;;;;;7.28;62.83;101392.03;1710718;83;25476;-59
2022/10/19 02:37:11;;;;;;;;;;;;;;;7.26;62.57;101393.09;1706215;83;28292;-58
2022/10/19 02:39:38;;;;;;;;;;;;;;;7.25;62.48;101392.70;1704078;82;25766;-58
2022/10/19 02:42:17;;;;;;;;;;;;;;;7.18;62.51;101393.11;1715327;82;25750;-59
2022/10/19 02:44:59;;;;;;;;;;;;;;;7.14;62.71;101394.25;1735729;82;25861;-60
2022/10/19 02:47:29;;;;;;;;;;;;;;;7.11;62.95;101399.83;1734046;82;26102;-59
2022/10/19 02:49:56;;;;;;;;;;;;;;;7.07;62.83;101396.11;1683235;82;27460;-59
2022/10/19 02:52:22;;;;;;;;;;;;;;;7.03;62.72;101399.45;1730952;82;25680;-58
2022/10/19 02:54:49;;;;;;;;;;;;;;;7.02;62.91;101396.40;1737075;82;25808;-59
2022/10/19 02:57:21;;;;;;;;;;;;;;;6.98;62.94;101395.73;1724061;82;26020;-58
2022/10/19 02:59:48;;;;;;;;;;;;;;;6.97;62.73;101395.81;1724070;82;25814;-59
2022/10/19 03:02:17;;;;;;;;;;;;;;;6.95;62.74;101393.25;1710625;82;27588;-58
2022/10/19 03:04:44;;;;;;;;;;;;;;;6.93;62.97;101398.32;1724479;82;25807;-59
2022/10/19 03:07:16;;;;;;;;;;;;;;;6.91;62.76;101398.89;1702729;82;25729;-58
2022/10/19 03:09:44;;;;;;;;;;;;;;;6.88;62.94;101405.30;1683005;83;25914;-59
2022/10/19 03:12:12;;;;;;;;;;;;;;;6.84;63.09;101396.61;1726966;82;25777;-58
2022/10/19 03:14:39;;;;;;;;;;;;;;;6.82;62.87;101393.63;1726084;83;27504;-59
2022/10/19 03:17:05;;;;;;;;;;;;;;;6.79;62.75;101401.37;1722857;82;25778;-59
2022/10/19 03:19:33;;;;;;;;;;;;;;;6.72;62.82;101401.38;1724341;83;25725;-59
2022/10/19 03:21:59;;;;;;;;;;;;;;;6.69;62.89;101397.55;1699606;83;26756;-59
2022/10/19 03:24:26;;;;;;;;;;;;;;;6.65;63.27;101394.70;1675678;83;25788;-60
2022/10/19 03:26:52;;;;;;;;;;;;;;;6.62;63.09;101399.77;1722322;83;28403;-58
2022/10/19 03:29:18;;;;;;;;;;;;;;;6.56;63.34;101402.80;1709727;83;25644;-59
2022/10/19 03:31:45;;;;;;;;;;;;;;;6.50;63.34;101393.34;1702507;83;25756;-57
2022/10/19 03:34:11;;;;;;;;;;;;;;;6.44;63.28;101397.73;1729063;82;25794;-58
2022/10/19 03:36:38;;;;;;;;;;;;;;;6.42;63.53;101402.30;1674736;82;25725;-58
2022/10/19 03:39:08;;;;;;;;;;;;;;;6.41;63.53;101401.46;1724579;83;27505;-58
2022/10/19 03:41:36;;;;;;;;;;;;;;;6.39;63.62;101398.50;1722993;82;25826;-59
2022/10/19 03:44:04;;;;;;;;;;;;;;;6.34;63.83;101396.11;1706530;83;25736;-59
2022/10/19 03:46:31;;;;;;;;;;;;;;;6.33;63.86;101395.72;1729036;83;26456;-60
2022/10/19 03:48:57;;;;;;;;;;;;;;;6.31;64.06;101398.11;1736994;82;25794;-59
2022/10/19 03:51:27;;;;;;;;;;;;;;;6.30;64.58;101399.06;1688783;83;27544;-59
2022/10/19 03:53:55;;;;;;;;;;;;;;;6.31;64.50;101396.78;1675760;83;26707;-58
2022/10/19 03:56:25;;;;;;;;;;;;;;;6.31;64.39;101401.62;1725479;83;25686;-59
2022/10/19 03:58:53;;;;;;;;;;;;;;;6.30;64.39;101390.55;1695939;83;25874;-59
2022/10/19 04:01:22;;;;;;;;;;;;;;;6.28;64.42;101387.11;1689440;84;25941;-60
2022/10/19 04:03:53;;;;;;;;;;;;;;;6.26;64.23;101385.87;1674885;83;27644;-58
2022/10/19 04:06:23;;;;;;;;;;;;;;;6.24;64.49;101385.11;1675314;84;25764;-59
2022/10/19 04:08:50;;;;;;;;;;;;;;;6.23;64.63;101390.06;1689714;83;25818;-60
2022/10/19 04:11:18;;;;;;;;;;;;;;;6.23;64.55;101394.06;1690065;83;25836;-59
2022/10/19 04:13:48;;;;;;;;;;;;;;;6.23;64.49;101387.88;1697835;83;26113;-59
2022/10/19 04:16:15;;;;;;;;;;;;;;;6.20;64.31;101386.26;1691624;83;27453;-60
2022/10/19 04:18:42;;;;;;;;;;;;;;;6.20;64.82;101383.59;1696096;82;25722;-59
2022/10/19 04:21:31;;;;;;;;;;;;;;;6.18;64.86;101384.15;1682581;85;25859;-59
2022/10/19 04:24:00;;;;;;;;;;;;;;;6.16;64.82;101379.86;1686501;83;26545;-60
2022/10/19 04:26:27;;;;;;;;;;;;;;;6.18;65.36;101381.97;1695341;83;25752;-60
2022/10/19 04:28:53;;;;;;;;;;;;;;;6.18;65.50;101377.96;1691156;83;27575;-58
2022/10/19 04:31:19;;;;;;;;;;;;;;;6.17;65.08;101384.25;1699915;83;25754;-59
2022/10/19 04:33:46;;;;;;;;;;;;;;;6.12;65.07;101379.19;1715564;82;25662;-60
2022/10/19 04:36:12;;;;;;;;;;;;;;;6.09;65.01;101384.24;1688473;83;27968;-59
2022/10/19 04:38:39;;;;;;;;;;;;;;;6.05;65.31;101373.83;1672045;83;25772;-59
2022/10/19 04:41:08;;;;;;;;;;;;;;;6.01;65.47;101377.13;1714603;83;28273;-58
2022/10/19 04:43:35;;;;;;;;;;;;;;;6.00;65.85;101377.23;1726667;83;25765;-59
2022/10/19 04:46:04;;;;;;;;;;;;;;;5.99;65.86;101379.06;1727108;82;25731;-58
2022/10/19 04:48:31;;;;;;;;;;;;;;;5.95;66.04;101378.36;1727209;83;25820;-58
2022/10/19 04:50:57;;;;;;;;;;;;;;;6.00;66.24;101374.11;1709341;83;26202;-58
2022/10/19 04:53:25;;;;;;;;;;;;;;;6.01;66.13;101377.13;1676057;83;27501;-60
2022/10/19 04:55:51;;;;;;;;;;;;;;;6.01;66.17;101374.47;1711417;83;25869;-59
2022/10/19 04:58:18;;;;;;;;;;;;;;;6.02;66.48;101378.02;1674589;85;25898;-59
2022/10/19 05:00:44;;;;;;;;;;;;;;;6.03;66.30;101376.58;1684708;82;26597;-59
2022/10/19 05:03:11;;;;;;;;;;;;;;;6.03;66.45;101375.73;1704025;83;25702;-60
2022/10/19 05:05:38;;;;;;;;;;;;;;;6.05;66.30;101387.19;1719811;82;27549;-59
2022/10/19 05:08:05;;;;;;;;;;;;;;;6.09;66.49;101394.05;1701851;82;26332;-59
2022/10/19 05:10:31;;;;;;;;;;;;;;;6.09;66.45;101397.59;1679414;82;25754;-60
2022/10/19 05:13:01;;;;;;;;;;;;;;;6.10;66.44;101387.77;1727424;83;25844;-60
2022/10/19 05:15:28;;;;;;;;;;;;;;;6.14;66.35;101390.61;1691813;82;25703;-59
2022/10/19 05:17:56;;;;;;;;;;;;;;;6.18;66.60;101389.98;1705282;83;27530;-59
2022/10/19 05:20:22;;;;;;;;;;;;;;;6.21;66.41;101392.45;1717518;82;25756;-58
2022/10/19 05:22:49;;;;;;;;;;;;;;;6.25;67.02;101393.50;1700499;83;25815;-58
2022/10/19 05:25:16;;;;;;;;;;;;;;;6.30;66.79;101401.73;1724440;83;26023;-59
2022/10/19 05:27:42;;;;;;;;;;;;;;;6.35;66.46;101401.84;1724549;82;25677;-60
2022/10/19 05:30:09;;;;;;;;;;;;;;;6.39;66.50;101402.52;1727567;83;27518;-59
2022/10/19 05:32:36;;;;;;;;;;;;;;;6.42;66.62;101400.97;1715281;82;25778;-60
2022/10/19 05:35:03;;;;;;;;;;;;;;;6.47;66.71;101394.00;1722680;83;26468;-62
2022/10/19 05:37:29;;;;;;;;;;;;;;;6.54;66.69;101400.72;1717016;83;26039;-59
2022/10/19 05:39:56;;;;;;;;;;;;;;;6.63;66.63;101401.48;1714739;82;25727;-60
2022/10/19 05:42:22;;;;;;;;;;;;;;;6.73;66.67;101398.59;1701352;83;28303;-61
2022/10/19 05:44:48;;;;;;;;;;;;;;;6.83;66.72;101398.90;1699020;83;25718;-60
2022/10/19 05:47:15;;;;;;;;;;;;;;;6.98;66.87;101402.89;1696506;83;25720;-60
2022/10/19 05:49:42;;;;;;;;;;;;;;;7.07;66.70;101394.28;1727099;83;25873;-59
2022/10/19 05:52:08;;;;;;;;;;;;;;;7.20;66.97;101393.88;1712024;83;25715;-60
2022/10/19 05:54:36;;;;;;;;;;;;;;;7.35;67.10;101393.84;1720011;82;27838;-60
2022/10/19 05:57:04;;;;;;;;;;;;;;;7.49;67.10;101392.44;1700270;82;25797;-59
2022/10/19 05:59:33;;;;;;;;;;;;;;;7.62;66.81;101393.83;1710766;83;25706;-59
2022/10/19 06:02:00;;;;;;;;;;;;;;;7.76;66.78;101392.06;1642268;85;26565;-60
2022/10/19 06:04:26;;;;;;;;;;;;;;;7.81;66.59;101392.59;1666530;84;25723;-60
2022/10/19 06:06:53;;;;;;;;;;;;;;;7.92;66.82;101387.88;1683179;84;28111;-61
2022/10/19 06:09:19;;;;;;;;;;;;;;;7.98;66.41;101388.80;1722305;83;25998;-61
2022/10/19 06:11:47;;;;;;;;;;;;;;;8.11;66.60;101392.34;1702612;83;25718;-59
2022/10/19 06:14:15;;;;;;;;;;;;;;;8.23;66.34;101393.81;1696611;83;25813;-60
2022/10/19 06:16:42;;;;;;;;;;;;;;;8.38;66.29;101391.40;1695766;83;25959;-61
2022/10/19 06:19:08;;;;;;;;;;;;;;;8.53;66.08;101392.19;1717336;83;27640;-60
2022/10/19 06:21:34;;;;;;;;;;;;;;;8.66;65.72;101389.50;1670808;83;25718;-60
2022/10/19 06:24:03;;;;;;;;;;;;;;;8.80;65.70;101391.20;1669642;85;25496;-59
2022/10/19 06:26:31;;;;;;;;;;;;;;;8.95;65.53;101390.59;1669945;83;26502;-59
2022/10/19 06:28:59;;;;;;;;;;;;;;;9.15;65.21;101388.30;1690731;83;25895;-61
2022/10/19 06:31:27;;;;;;;;;;;;;;;9.33;64.74;101392.79;1726148;82;27554;-60
2022/10/19 06:33:53;;;;;;;;;;;;;;;9.57;64.48;101385.25;1691877;83;25884;-62
2022/10/19 06:36:23;;;;;;;;;;;;;;;9.79;64.03;101393.89;1727031;83;25863;-61
2022/10/19 06:38:52;;;;;;;;;;;;;;;9.98;63.50;101387.97;1687591;83;26912;-59
2022/10/19 06:41:19;;;;;;;;;;;;;;;10.15;62.83;101382.66;1700015;83;25507;-59
2022/10/19 06:43:53;;;;;;;;;;;;;;;10.26;61.84;101386.72;1721036;83;28347;-62
2022/10/19 06:46:22;;;;;;;;;;;;;;;10.33;60.97;101381.23;1694884;83;25821;-62
2022/10/19 06:49:00;;;;;;;;;;;;;;;10.37;59.99;101383.66;1725679;82;25828;-60
2022/10/19 06:51:29;;;;;;;;;;;;;;;10.45;59.99;101387.51;1710851;83;25844;-62
2022/10/19 06:53:55;;;;;;;;;;;;;;;10.61;60.25;101382.25;1683971;83;25739;-60
2022/10/19 06:56:23;;;;;;;;;;;;;;;10.70;59.53;101373.95;1698013;83;27469;-61
2022/10/19 06:58:52;;;;;;;;;;;;;;;10.75;58.57;101379.81;1728811;82;25727;-62
2022/10/19 07:01:18;;;;;;;;;;;;;;;10.77;58.36;101382.74;1742707;82;25715;-62
2022/10/19 07:03:45;;;;;;;;;;;;;;;10.77;58.45;101384.59;1742522;82;25787;-61
2022/10/19 07:06:12;;;;;;;;;;;;;;;10.80;58.17;101376.28;1742593;82;27346;-61
2022/10/19 07:08:41;;;;;;;;;;;;;;;10.79;58.48;101382.14;1742563;82;27541;-61
2022/10/19 07:11:14;;;;;;;;;;;;;;;10.87;58.44;101388.27;1731217;81;25816;-60
2022/10/19 07:13:40;;;;;;;;;;;;;;;10.93;58.31;101385.06;1715562;83;25480;-60
2022/10/19 07:16:10;;;;;;;;;;;;;;;11.00;57.99;101384.56;1716028;83;25852;-61
2022/10/19 07:18:39;;;;;;;;;;;;;;;11.08;57.88;101392.87;1716080;83;25969;-61
2022/10/19 07:21:08;;;;;;;;;;;;;;;11.21;57.98;101389.56;1715995;83;28370;-61
2022/10/19 07:23:36;;;;;;;;;;;;;;;11.39;58.07;101387.69;1716072;83;25729;-61
2022/10/19 07:26:10;;;;;;;;;;;;;;;11.59;57.89;101390.95;1715936;83;25484;-62
2022/10/19 07:28:39;;;;;;;;;;;;;;;11.77;57.38;101397.13;1716236;83;25836;-61
2022/10/19 07:31:08;;;;;;;;;;;;;;;11.89;57.24;101386.64;1716092;83;25725;-62
2022/10/19 07:33:34;;;;;;;;;;;;;;;11.99;56.84;101390.81;1716387;83;27522;-60
2022/10/19 07:36:04;;;;;;;;;;;;;;;12.05;56.38;101394.32;1715811;83;25862;-61
2022/10/19 07:38:31;;;;;;;;;;;;;;;12.11;56.20;101398.34;1713376;82;25825;-61
2022/10/19 07:41:06;;;;;;;;;;;;;;;12.16;56.24;101392.55;1704401;83;26587;-61
2022/10/19 07:43:33;;;;;;;;;;;;;;;12.23;56.22;101394.23;1680991;85;25896;-63
2022/10/19 07:46:03;;;;;;;;;;;;;;;12.25;55.97;101394.47;1712232;83;27511;-60
2022/10/19 07:48:30;;;;;;;;;;;;;;;12.31;55.79;101396.63;1712616;83;25797;-63
2022/10/19 07:50:57;;;;;;;;;;;;;;;12.42;55.53;101397.03;1713990;83;25439;-61
2022/10/19 07:53:24;;;;;;;;;;;;;;;12.55;55.71;101388.72;1715567;83;25783;-61
2022/10/19 07:55:51;;;;;;;;;;;;;;;12.71;55.75;101394.98;1715005;83;25679;-61
2022/10/19 07:58:18;;;;;;;;;;;;;;;12.90;55.69;101392.02;1715253;83;29689;-60
2022/10/19 08:00:45;;;;;;;;;;;;;;;13.21;55.73;101379.32;1715247;83;26106;-62
2022/10/19 08:03:11;;;;;;;;;;;;;;;13.65;55.95;101382.18;1715079;83;25766;-60
2022/10/19 08:05:38;;;;;;;;;;;;;;;13.98;59.25;101374.66;1715402;83;25805;-59
2022/10/19 08:08:05;;;;;;;;;;;;;;;14.29;58.75;101375.32;1715170;83;25706;-61
2022/10/19 08:10:31;;;;;;;;;;;;;;;14.59;58.66;101376.58;1720926;82;27511;-62
2022/10/19 08:12:58;;;;;;;;;;;;;;;14.63;58.46;101376.14;1748035;82;25755;-61
2022/10/19 08:15:25;;;;;;;;;;;;;;;14.76;58.24;101360.07;1721767;83;25686;-60
2022/10/19 08:17:52;;;;;;;;;;;;;;;14.76;58.04;101369.06;1721618;83;25725;-61
2022/10/19 08:20:18;;;;;;;;;;;;;;;14.77;58.26;101371.26;1721874;82;25859;-61
2022/10/19 08:22:45;;;;;;;;;;;;;;;14.84;58.09;101366.94;1721663;83;27446;-60
2022/10/19 08:25:12;;;;;;;;;;;;;;;14.91;58.48;101369.43;1721547;83;25723;-61
2022/10/19 08:27:38;;;;;;;;;;;;;;;14.94;58.26;101366.40;1721565;83;25523;-60
2022/10/19 08:30:06;;;;;;;;;;;;;;;14.93;58.38;101366.05;1721632;83;25909;-61
2022/10/19 08:32:33;;;;;;;;;;;;;;;15.00;58.70;101369.88;1721684;83;26068;-60
2022/10/19 08:34:59;;;;;;;;;;;;;;;15.10;58.37;101367.11;1721533;83;27560;-60
2022/10/19 08:37:26;;;;;;;;;;;;;;;15.25;58.38;101365.23;1705549;83;25754;-60
2022/10/19 08:39:52;;;;;;;;;;;;;;;15.34;58.23;101363.83;1698227;84;25710;-61
2022/10/19 08:42:25;;;;;;;;;;;;;;;15.47;57.79;101363.93;1684673;85;25729;-61
2022/10/19 08:44:58;;;;;;;;;;;;;;;15.53;57.41;101370.11;1682787;85;25761;-61
2022/10/19 08:48:01;;;;;;;;;;;;;;;15.60;57.25;101372.55;1699941;84;27551;-61
2022/10/19 08:50:37;;;;;;;;;;;;;;;15.58;57.13;101373.20;1651566;86;26647;-61
2022/10/19 08:53:16;;;;;;;;;;;;;;;15.50;57.26;101373.13;1697750;83;25737;-62
2022/10/19 08:56:12;;;;;;;;;;;;;;;15.51;57.43;101370.77;1707412;83;26044;-61
2022/10/19 08:59:03;;;;;;;;;;;;;;;15.51;57.49;101364.50;1707400;83;25802;-61
2022/10/19 09:01:53;;;;;;;;;;;;;;;15.54;57.60;101369.11;1707872;83;27521;-60
2022/10/19 09:04:41;;;;;;;;;;;;;;;15.55;57.43;101368.11;1707036;83;25841;-62
2022/10/19 09:07:20;;;;;;;;;;;;;;;15.61;57.45;101371.55;1707608;83;25863;-62
2022/10/19 09:10:06;;;;;;;;;;;;;;;15.68;57.44;101374.98;1707318;83;25806;-61
2022/10/19 09:12:36;;;;;;;;;;;;;;;15.69;57.40;101378.89;1678868;85;25739;-61
2022/10/19 09:15:06;;;;;;;;;;;;;;;15.64;57.80;101377.16;1679005;84;28313;-62
2022/10/19 09:17:32;;;;;;;;;;;;;;;15.61;57.98;101382.40;1679041;85;25795;-62
2022/10/19 09:20:20;;;;;;;;;;;;;;;15.65;57.99;101384.30;1678789;85;25647;-61
2022/10/19 09:22:59;;;;;;;;;;;;;;;15.69;57.98;101374.83;1679115;85;25823;-61
2022/10/19 09:25:25;;;;;;;;;;;;;;;15.80;57.83;101375.11;1675642;85;25802;-61
2022/10/19 09:27:58;;;;;;;;;;;;;;;15.92;57.58;101372.52;1679469;84;27591;-61
2022/10/19 09:30:25;;;;;;;;;;;;;;;16.09;57.39;101371.32;1678177;85;25711;-61
2022/10/19 09:32:59;;;;;;;;;;;;;;;16.14;57.36;101371.69;1679498;85;25716;-61
2022/10/19 09:35:28;;;;;;;;;;;;;;;16.20;57.13;101374.28;1679029;84;25812;-61
2022/10/19 09:37:56;;;;;;;;;;;;;;;16.34;56.72;101377.75;1697288;84;25787;-61
2022/10/19 09:40:25;;;;;;;;;;;;;;;16.42;56.51;101375.61;1703582;84;27516;-61
2022/10/19 09:43:01;;;;;;;;;;;;;;;16.47;56.29;101376.48;1716095;83;25773;-61
2022/10/19 09:45:53;;;;;;;;;;;;;;;16.56;56.30;101372.81;1723690;83;25713;-61
2022/10/19 09:48:38;;;;;;;;;;;;;;;16.55;56.31;101373.30;1723891;82;25897;-61
2022/10/19 09:51:13;;;;;;;;;;;;;;;16.52;56.46;101370.92;1712624;83;25700;-61
2022/10/19 09:53:54;;;;;;;;;;;;;;;16.58;56.26;101363.48;1707652;84;27461;-62
2022/10/19 09:56:25;;;;;;;;;;;;;;;16.78;56.10;101361.89;1707650;82;25680;-61
2022/10/19 09:58:57;;;;;;;;;;;;;;;16.87;55.71;101357.33;1707556;83;25778;-61
2022/10/19 10:01:39;;;;;;;;;;;;;;;16.97;55.25;101347.73;1707503;84;26470;-61
2022/10/19 10:04:08;;;;;;;;;;;;;;;17.00;55.07;101355.53;1707971;83;25827;-62
2022/10/19 10:06:36;;;;;;;;;;;;;;;17.05;55.11;101354.55;1707432;83;28432;-61
2022/10/19 10:09:04;;;;;;;;;;;;;;;17.12;54.61;101344.72;1679464;84;26665;-61
2022/10/19 10:11:40;;;;;;;;;;;;;;;17.10;54.32;101342.66;1707428;83;25493;-62
2022/10/19 10:14:08;;;;;;;;;;;;;;;17.14;53.70;101329.59;1707430;83;25767;-61
2022/10/19 10:16:35;;;;;;;;;;;;;;;17.08;53.82;101331.62;1707563;83;25781;-61
2022/10/19 10:19:12;;;;;;;;;;;;;;;16.97;54.09;101343.13;1707879;84;27469;-60
2022/10/19 10:21:51;;;;;;;;;;;;;;;16.96;54.34;101336.52;1707596;83;25791;-61
2022/10/19 10:24:20;;;;;;;;;;;;;;;16.94;54.35;101333.97;1707997;84;25830;-61
2022/10/19 10:26:52;;;;;;;;;;;;;;;16.92;54.60;101330.53;1707697;83;26580;-61
2022/10/19 10:29:27;;;;;;;;;;;;;;;16.91;54.71;101327.46;1708062;84;25779;-60
2022/10/19 10:31:59;;;;;;;;;;;;;;;16.83;55.38;101326.91;1707656;83;27624;-61
2022/10/19 10:34:35;;;;;;;;;;;;;;;16.80;55.40;101334.05;1707986;83;25691;-60
2022/10/19 10:37:03;;;;;;;;;;;;;;;16.75;55.95;101326.88;1701878;82;25798;-61
2022/10/19 10:39:31;;;;;;;;;;;;;;;16.64;56.11;101331.23;1696442;84;26298;-61
2022/10/19 10:42:05;;;;;;;;;;;;;;;16.51;56.48;101342.06;1707812;83;25739;-61
2022/10/19 10:44:35;;;;;;;;;;;;;;;16.40;56.72;101345.91;1707462;83;27488;-61
2022/10/19 10:47:04;;;;;;;;;;;;;;;16.34;57.10;101341.10;1707673;83;25775;-62
2022/10/19 10:49:36;;;;;;;;;;;;;;;16.30;57.46;101345.66;1707589;83;25796;-61
2022/10/19 10:52:06;;;;;;;;;;;;;;;16.24;57.68;101347.14;1665454;84;25984;-61
2022/10/19 10:54:33;;;;;;;;;;;;;;;16.15;57.59;101334.03;1695520;83;25734;-60
2022/10/19 10:57:17;;;;;;;;;;;;;;;16.11;57.58;101328.56;1695131;84;27504;-60
2022/10/19 10:59:56;;;;;;;;;;;;;;;16.16;57.76;101319.45;1688464;83;25766;-61
2022/10/19 11:02:32;;;;;;;;;;;;;;;16.20;57.75;101319.47;1687133;85;25757;-61
2022/10/19 11:05:11;;;;;;;;;;;;;;;16.37;57.53;101319.07;1687383;85;26921;-61
2022/10/19 11:07:40;;;;;;;;;;;;;;;16.53;57.17;101330.54;1687192;85;25943;-61
2022/10/19 11:10:29;;;;;;;;;;;;;;;16.70;57.00;101326.53;1687078;85;27583;-60
2022/10/19 11:13:05;;;;;;;;;;;;;;;16.93;56.64;101327.29;1687260;83;25715;-61
2022/10/19 11:15:45;;;;;;;;;;;;;;;17.73;55.86;101320.50;1684874;85;25831;-60
2022/10/19 11:18:16;;;;;;;;;;;;;;;18.37;54.48;101330.67;1687049;85;25864;-61
2022/10/19 11:20:46;;;;;;;;;;;;;;;19.31;52.30;101323.97;1687528;85;25699;-60
2022/10/19 11:23:16;;;;;;;;;;;;;;;20.07;51.59;101320.98;1686926;84;27504;-61
2022/10/19 11:26:15;;;;;;;;;;;;;;;20.57;49.88;101319.44;1687403;85;25809;-61
2022/10/19 11:28:51;;;;;;;;;;;;;;;20.93;48.19;101311.80;1686981;83;25790;-62
2022/10/19 11:31:23;;;;;;;;;;;;;;;20.95;47.78;101320.66;1687084;85;25850;-61
2022/10/19 11:33:56;;;;;;;;;;;;;;;20.84;47.58;101308.88;1687249;85;26010;-62
2022/10/19 11:36:43;;;;;;;;;;;;;;;20.55;48.59;101317.40;1689973;84;27536;-61
2022/10/19 11:39:37;;;;;;;;;;;;;;;20.17;49.26;101320.20;1700060;84;25683;-61
2022/10/19 11:42:16;;;;;;;;;;;;;;;19.62;50.57;101324.41;1671490;85;25814;-60
2022/10/19 11:45:02;;;;;;;;;;;;;;;19.18;51.61;101324.56;1671779;85;25864;-60
2022/10/19 11:47:42;;;;;;;;;;;;;;;18.93;52.60;101336.11;1671500;85;25757;-61
2022/10/19 11:50:21;;;;;;;;;;;;;;;18.76;52.60;101334.79;1677789;84;27644;-61
2022/10/19 11:52:54;;;;;;;;;;;;;;;18.49;52.57;101332.50;1692317;83;25696;-61
2022/10/19 11:55:30;;;;;;;;;;;;;;;18.14;53.67;101330.02;1692214;83;25789;-62
2022/10/19 11:58:00;;;;;;;;;;;;;;;17.94;54.00;101334.95;1691746;84;25903;-61
2022/10/19 12:00:29;;;;;;;;;;;;;;;18.02;54.95;101320.00;1691644;84;25721;-62
2022/10/19 12:03:19;;;;;;;;;;;;;;;18.46;54.88;101313.28;1691951;84;27573;-61
2022/10/19 12:06:11;;;;;;;;;;;;;;;19.03;53.22;101305.39;1691800;84;25781;-61
2022/10/19 12:08:44;;;;;;;;;;;;;;;19.20;52.75;101305.28;1692437;84;25859;-61
2022/10/19 12:11:32;;;;;;;;;;;;;;;19.20;51.16;101307.48;1691917;84;25903;-61
2022/10/19 12:14:02;;;;;;;;;;;;;;;19.11;51.45;101305.00;1683431;84;26154;-59
2022/10/19 12:16:42;;;;;;;;;;;;;;;19.00;51.56;101302.17;1692051;84;27532;-61
2022/10/19 12:19:14;;;;;;;;;;;;;;;18.90;51.32;101303.21;1691283;84;25866;-61
2022/10/19 12:21:44;;;;;;;;;;;;;;;18.82;51.74;101284.67;1691100;84;25694;-59
2022/10/19 12:24:19;;;;;;;;;;;;;;;18.75;51.63;101284.53;1692271;84;25855;-60
2022/10/19 12:26:47;;;;;;;;;;;;;;;19.00;51.96;101279.83;1692141;84;25741;-61
2022/10/19 12:29:17;;;;;;;;;;;;;;;19.20;51.35;101283.47;1692026;84;27471;-61
2022/10/19 12:31:44;;;;;;;;;;;;;;;19.25;50.79;101276.94;1692108;84;25764;-61
2022/10/19 12:34:28;;;;;;;;;;;;;;;19.10;50.17;101275.50;1692451;84;25797;-61
2022/10/19 12:37:16;;;;;;;;;;;;;;;18.84;50.64;101278.53;1689668;84;25942;-61
2022/10/19 12:40:01;;;;;;;;;;;;;;;18.60;50.93;101270.83;1687188;84;25623;-61
2022/10/19 12:42:32;;;;;;;;;;;;;;;18.33;51.29;101268.02;1692163;84;27552;-61
2022/10/19 12:45:14;;;;;;;;;;;;;;;18.14;51.57;101267.39;1691596;83;25757;-61
2022/10/19 12:47:44;;;;;;;;;;;;;;;17.98;52.05;101257.38;1691798;83;25765;-61
2022/10/19 12:50:10;;;;;;;;;;;;;;;17.88;52.37;101272.52;1670484;84;25865;-61
2022/10/19 12:52:43;;;;;;;;;;;;;;;17.78;52.44;101261.83;1699931;83;25490;-61
2022/10/19 12:55:13;;;;;;;;;;;;;;;17.75;52.87;101249.92;1700135;84;27600;-61
2022/10/19 12:57:45;;;;;;;;;;;;;;;17.74;53.58;101249.58;1699283;84;25505;-61
2022/10/19 13:00:29;;;;;;;;;;;;;;;17.63;53.63;101248.06;1699458;83;25736;-61
2022/10/19 13:03:02;;;;;;;;;;;;;;;17.72;53.58;101250.25;1699774;83;25819;-61